weather.gov     
National Weather Service

Terminal Aerodrome Forecast
NWS Homepage
This page is being discontinued on March 12, 2014.
The same data is available at this site. Please update your bookmarks.
Thank you, and we apologize for the inconvenience.
Please send an email to SR-SRH.Webmaster@noaa.gov with any concerns.


Current Version
Previous Version:    01  02  03  04  05  06  07  08  09  10  11  12  13  14  15  16  17  18  19  20  21  22  23  24  25  26  27  28  29  30  
   31  32  33  34  35  36  37  38  39  40  41  
[Printable]
564
FTUS46 KOTX 181004 AAC
TAFSFF
TAF AMD
KSFF 181004Z 1810/1906 22018G23KT P6SM VCSH OVC020
     FM181100 22018G25KT P6SM FEW025 SCT080
     FM181800 24016G22KT P6SM FEW050
     FM182300 24012G20KT P6SM FEW250
     FM190200 24005KT P6SM FEW200=


564
FTUS46 KOTX 181004 AAC
TAFSFF
TAF AMD
KSFF 181004Z 1810/1906 22018G23KT P6SM VCSH OVC020
     FM181100 22018G25KT P6SM FEW025 SCT080
     FM181800 24016G22KT P6SM FEW050
     FM182300 24012G20KT P6SM FEW250
     FM190200 24005KT P6SM FEW200=




U.S. Dept. of Commerce
NOAA National Weather Service
1325 East West Highway
Silver Spring, MD 20910
E-mail: w-nws.webmaster@noaa.gov
Page last modified: May 16, 2007
NATIONAL WEATHER SERVICE: for Safety, for Work, for Fun - FOR LIFE